| time (UTC) | temp C | wind direction | speed KPH | gust KPH | rain 1hr cm | rain 24hr cm | rain mn cm | humidity % | barometer mb |
| 20260505171553 | 21 | 252 | 6.4 | 17.7 | 0.00 | 0.00 | 0.00 | 49 | 1011.0 |
| 20260505170048 | 21 | 243 | 3.2 | 11.3 | 0.00 | 0.00 | 0.00 | 50 | 1011.0 |
| 20260505164551 | 21 | 248 | 3.2 | 11.3 | 0.00 | 0.00 | 0.00 | 52 | 1011.0 |
| 20260505163056 | 20 | 264 | 4.8 | 11.3 | 0.00 | 0.00 | 0.00 | 54 | 1010.9 |
| 20260505161604 | 20 | 228 | 1.6 | 4.8 | 0.00 | 0.00 | 0.00 | 54 | 1010.9 |
| 20260505153049 | 18 | 307 | 0.0 | 0.0 | 0.00 | 0.00 | 0.00 | 60 | 1010.9 |
| 20260505151555 | 17 | 0 | 0.0 | 0.0 | 0.00 | 0.00 | 0.00 | 65 | 1010.9 |
| 20260505140108 | 10 | 0 | 0.0 | 0.0 | 0.00 | 0.00 | 0.00 | 81 | 1010.2 |
| 20260505124557 | 9 | 0 | 0.0 | 0.0 | 0.00 | 0.00 | 0.00 | 84 | 1009.4 |
| 20260505123102 | 9 | 0 | 0.0 | 1.6 | 0.00 | 0.00 | 0.00 | 84 | 1009.2 |
| 20260505121558 | 9 | 0 | 0.0 | 1.6 | 0.00 | 0.00 | 0.00 | 83 | 1009.0 |
| 20260505120053 | 9 | 0 | 0.0 | 1.6 | 0.00 | 0.00 | 0.00 | 83 | 1008.9 |
| 20260505114555 | 10 | 0 | 0.0 | 1.6 | 0.00 | 0.00 | 0.00 | 82 | 1008.7 |
| 20260505113058 | 10 | 0 | 0.0 | 0.0 | 0.00 | 0.00 | 0.00 | 81 | 1008.6 |
| 20260505111553 | 11 | 0 | 0.0 | 0.0 | 0.00 | 0.00 | 0.00 | 80 | 1008.5 |
| 20260505101555 | 12 | 0 | 0.0 | 1.6 | 0.00 | 0.00 | 0.00 | 78 | 1008.0 |
| 20260505100052 | 12 | 0 | 0.0 | 0.0 | 0.00 | 0.00 | 0.00 | 77 | 1007.8 |
| 20260505094551 | 12 | 0 | 0.0 | 1.6 | 0.00 | 0.00 | 0.00 | 77 | 1007.7 |
| 20260505093049 | 12 | 0 | 0.0 | 0.0 | 0.00 | 0.00 | 0.00 | 77 | 1007.7 |
| 20260505091614 | 12 | 0 | 0.0 | 3.2 | 0.00 | 0.00 | 0.00 | 76 | 1007.6 |
| 20260505090049 | 11 | 0 | 0.0 | 0.0 | 0.00 | 0.00 | 0.00 | 75 | 1007.6 |
| 20260505084550 | 12 | 0 | 0.0 | 1.6 | 0.00 | 0.00 | 0.00 | 74 | 1007.5 |
| 20260505083053 | 12 | 0 | 0.0 | 3.2 | 0.00 | 0.00 | 0.00 | 74 | 1007.5 |
| 20260505081558 | 12 | 77 | 0.0 | 0.0 | 0.00 | 0.00 | 0.00 | 72 | 1007.5 |
| 20260505074548 | 13 | 0 | 0.0 | 0.0 | 0.00 | 0.00 | 0.00 | 68 | 1007.3 |
| 20260505073052 | 13 | 0 | 0.0 | 0.0 | 0.00 | 0.00 | 0.00 | 68 | 1007.3 |
| 20260505071556 | 13 | 0 | 0.0 | 1.6 | 0.00 | 0.00 | 0.00 | 69 | 1007.0 |
| 20260505070053 | 13 | 0 | 0.0 | 1.6 | 0.00 | 0.00 | 0.00 | 69 | 1007.0 |
| 20260505064552 | 13 | 0 | 0.0 | 1.6 | 0.00 | 0.00 | 0.00 | 68 | 1006.6 |
| 20260505063114 | 13 | 0 | 0.0 | 3.2 | 0.00 | 0.00 | 0.00 | 68 | 1006.6 |
| 20260505061623 | 13 | 0 | 0.0 | 0.0 | 0.00 | 0.00 | 0.00 | 67 | 1006.6 |
| 20260505054603 | 15 | 0 | 0.0 | 3.2 | 0.00 | 0.00 | 0.00 | 62 | 1006.1 |
| 20260505053051 | 15 | 0 | 0.0 | 0.0 | 0.00 | 0.00 | 0.00 | 63 | 1006.1 |
| 20260505051611 | 15 | 0 | 0.0 | 1.6 | 0.00 | 0.00 | 0.00 | 62 | 1006.0 |
| 20260505041555 | 17 | 0 | 0.0 | 0.0 | 0.00 | 0.00 | 0.00 | 58 | 1005.7 |
| 20260505040054 | 17 | 0 | 0.0 | 0.0 | 0.00 | 0.00 | 0.00 | 58 | 1005.6 |
| 20260505034550 | 18 | 0 | 0.0 | 1.6 | 0.00 | 0.00 | 0.00 | 55 | 1005.4 |
| 20260505033055 | 20 | 0 | 0.0 | 4.8 | 0.00 | 0.00 | 0.00 | 52 | 1005.2 |
| 20260505031559 | 21 | 103 | 3.2 | 8.0 | 0.00 | 0.00 | 0.00 | 47 | 1005.1 |
| 20260505030052 | 23 | 0 | 0.0 | 1.6 | 0.00 | 0.00 | 0.00 | 41 | 1005.1 |
| 20260505024555 | 26 | 0 | 0.0 | 1.6 | 0.00 | 0.00 | 0.00 | 36 | 1005.1 |
| 20260505023054 | 27 | 0 | 0.0 | 3.2 | 0.00 | 0.00 | 0.00 | 35 | 1005.1 |
| 20260505021553 | 28 | 0 | 0.0 | 1.6 | 0.00 | 0.00 | 0.00 | 32 | 1005.1 |
| 20260505014553 | 28 | 0 | 0.0 | 9.7 | 0.00 | 0.00 | 0.00 | 27 | 1005.2 |
| 20260505013103 | 28 | 355 | 0.0 | 6.4 | 0.00 | 0.00 | 0.00 | 25 | 1005.4 |
| 20260505011553 | 28 | 270 | 1.6 | 11.3 | 0.00 | 0.00 | 0.00 | 23 | 1005.5 |
| 20260505010108 | 29 | 351 | 1.6 | 14.5 | 0.00 | 0.00 | 0.00 | 23 | 1005.6 |
| 20260505004552 | 29 | 337 | 1.6 | 11.3 | 0.00 | 0.00 | 0.00 | 23 | 1005.6 |
| 20260505003056 | 29 | 21 | 4.8 | 16.1 | 0.00 | 0.00 | 0.00 | 21 | 1005.6 |
| 20260505001549 | 29 | 355 | 1.6 | 16.1 | 0.00 | 0.00 | 0.00 | 21 | 1005.6 |
| 20260505000100 | 30 | 46 | 3.2 | 14.5 | 0.00 | 0.00 | 0.00 | 20 | 1005.7 |
| 20260504234553 | 30 | 305 | 1.6 | 12.9 | 0.00 | 0.00 | 0.00 | 20 | 1005.7 |
| 20260504233105 | 30 | 297 | 4.8 | 11.3 | 0.00 | 0.00 | 0.00 | 23 | 1005.7 |
| 20260504231551 | 30 | 32 | 4.8 | 12.9 | 0.00 | 0.00 | 0.00 | 22 | 1005.8 |
| 20260504230056 | 30 | 304 | 1.6 | 9.7 | 0.00 | 0.00 | 0.00 | 23 | 1006.0 |
| 20260504224551 | 29 | 30 | 1.6 | 8.0 | 0.00 | 0.00 | 0.00 | 23 | 1006.1 |
| 20260504223048 | 29 | 39 | 0.0 | 9.7 | 0.00 | 0.00 | 0.00 | 24 | 1006.2 |
| 20260504221552 | 29 | 311 | 0.0 | 17.7 | 0.00 | 0.00 | 0.00 | 26 | 1006.4 |
| 20260504220054 | 29 | 348 | 3.2 | 12.9 | 0.00 | 0.00 | 0.00 | 22 | 1006.5 |
| 20260504214555 | 29 | 1 | 3.2 | 19.3 | 0.00 | 0.00 | 0.00 | 26 | 1006.7 |
| 20260504213052 | 29 | 253 | 4.8 | 16.1 | 0.00 | 0.00 | 0.00 | 24 | 1006.9 |
| 20260504211553 | 29 | 319 | 1.6 | 11.3 | 0.00 | 0.00 | 0.00 | 25 | 1007.0 |
| 20260504210104 | 28 | 324 | 3.2 | 9.7 | 0.00 | 0.00 | 0.00 | 26 | 1007.1 |
| 20260504204605 | 28 | 311 | 4.8 | 12.9 | 0.00 | 0.00 | 0.00 | 26 | 1007.3 |
| 20260504203106 | 28 | 301 | 1.6 | 8.0 | 0.00 | 0.00 | 0.00 | 28 | 1007.5 |
| 20260504201553 | 27 | 245 | 1.6 | 9.7 | 0.00 | 0.00 | 0.00 | 27 | 1007.6 |
| 20260504200057 | 27 | 280 | 1.6 | 12.9 | 0.00 | 0.00 | 0.00 | 28 | 1007.7 |
| 20260504194602 | 27 | 295 | 1.6 | 12.9 | 0.00 | 0.00 | 0.00 | 30 | 1007.7 |
| 20260504193057 | 26 | 224 | 1.6 | 9.7 | 0.00 | 0.00 | 0.00 | 28 | 1007.8 |
| 20260504191552 | 26 | 270 | 4.8 | 11.3 | 0.00 | 0.00 | 0.00 | 30 | 1007.9 |
| 20260504190121 | 26 | 283 | 4.8 | 12.9 | 0.00 | 0.00 | 0.00 | 30 | 1008.1 |
| 20260504184552 | 26 | 297 | 1.6 | 8.0 | 0.00 | 0.00 | 0.00 | 31 | 1008.1 |
| 20260504183054 | 25 | 303 | 3.2 | 8.0 | 0.00 | 0.00 | 0.00 | 34 | 1008.2 |
| 20260504181554 | 25 | 0 | 3.2 | 9.7 | 0.00 | 0.00 | 0.00 | 33 | 1008.3 |
| 20260504180057 | 23 | 267 | 3.2 | 14.5 | 0.00 | 0.00 | 0.00 | 35 | 1008.3 |
| 20260504174558 | 23 | 304 | 4.8 | 12.9 | 0.00 | 0.00 | 0.00 | 35 | 1008.3 |
| 20260504173057 | 23 | 245 | 4.8 | 8.0 | 0.00 | 0.00 | 0.00 | 36 | 1008.4 |